createdAt,value
2018-06-20T00:00:13.504Z,0.00
2018-06-20T00:01:13.525Z,0.00
2018-06-20T00:02:13.544Z,0.00
2018-06-20T00:03:13.561Z,0.00
2018-06-20T00:04:13.631Z,0.00
2018-06-20T00:05:13.604Z,0.00
2018-06-20T00:06:13.615Z,0.00
2018-06-20T00:07:13.637Z,0.00
2018-06-20T00:08:13.651Z,0.00
2018-06-20T00:09:13.673Z,0.00
2018-06-20T00:10:13.749Z,0.00
2018-06-20T00:11:13.713Z,0.00
2018-06-20T00:12:13.733Z,0.00
2018-06-20T00:13:13.750Z,0.00
2018-06-20T00:14:13.773Z,0.00
2018-06-20T00:15:13.789Z,0.00
2018-06-20T00:16:13.810Z,0.00
2018-06-20T00:17:13.830Z,0.00
2018-06-20T00:18:13.846Z,0.00
2018-06-20T00:19:13.871Z,0.00
2018-06-20T00:20:13.887Z,0.00
2018-06-20T00:21:13.908Z,0.00
2018-06-20T00:22:13.934Z,0.00
2018-06-20T00:23:13.948Z,0.00
2018-06-20T00:24:13.963Z,0.00
2018-06-20T00:25:13.982Z,0.00
2018-06-20T00:26:14.003Z,0.00
2018-06-20T00:27:14.020Z,0.00
2018-06-20T00:28:14.087Z,0.00
2018-06-20T00:29:14.061Z,0.00
2018-06-20T00:30:14.081Z,0.00
2018-06-20T00:31:14.100Z,0.00
2018-06-20T00:32:14.115Z,0.00
2018-06-20T00:33:14.136Z,0.00
2018-06-20T00:34:14.210Z,0.00
2018-06-20T00:35:14.260Z,0.00
2018-06-20T00:36:14.196Z,0.00
2018-06-20T00:37:14.211Z,0.00
2018-06-20T00:38:14.235Z,0.00
2018-06-20T00:39:14.247Z,0.00
2018-06-20T00:40:14.273Z,0.00
2018-06-20T00:41:14.339Z,0.00
2018-06-20T00:42:14.313Z,0.00
2018-06-20T00:43:14.332Z,0.00
2018-06-20T00:44:14.350Z,0.00
2018-06-20T00:45:14.370Z,0.00
2018-06-20T00:46:14.435Z,0.00
2018-06-20T00:47:14.444Z,0.00
2018-06-20T00:48:14.422Z,0.00
2018-06-20T00:49:14.441Z,0.00
2018-06-20T00:50:14.464Z,0.00
2018-06-20T00:51:14.483Z,0.00
2018-06-20T00:52:14.506Z,0.00
2018-06-20T00:53:14.598Z,0.00
2018-06-20T00:54:14.541Z,0.00
2018-06-20T00:55:14.562Z,0.00
2018-06-20T00:56:14.580Z,0.00
2018-06-20T00:57:14.596Z,0.00
2018-06-20T00:58:14.669Z,0.00
2018-06-20T00:59:14.639Z,0.00
2018-06-20T01:00:14.652Z,0.00
2018-06-20T01:01:14.678Z,0.00
2018-06-20T01:02:14.692Z,0.00
2018-06-20T01:03:14.710Z,0.00
2018-06-20T01:04:14.740Z,0.00
2018-06-20T01:05:14.748Z,0.00
2018-06-20T01:06:14.772Z,0.00
2018-06-20T01:07:14.788Z,0.00
2018-06-20T01:08:14.806Z,0.00
2018-06-20T01:09:14.826Z,0.00
2018-06-20T01:10:14.848Z,0.00
2018-06-20T01:11:14.863Z,0.00
2018-06-20T01:12:14.882Z,0.00
2018-06-20T01:13:14.909Z,0.00
2018-06-20T01:14:14.925Z,0.00
2018-06-20T01:15:14.947Z,0.00
2018-06-20T01:16:15.019Z,0.00
2018-06-20T01:17:14.981Z,0.00
2018-06-20T01:18:15.083Z,0.00
2018-06-20T01:19:15.022Z,0.00
2018-06-20T01:20:15.042Z,0.00
2018-06-20T01:21:15.062Z,0.00
2018-06-20T01:22:15.126Z,0.00
2018-06-20T01:23:15.099Z,0.00
2018-06-20T01:24:15.139Z,0.00
2018-06-20T01:25:15.137Z,0.00
2018-06-20T01:26:15.154Z,0.00
2018-06-20T01:27:15.178Z,0.00
2018-06-20T01:28:15.262Z,0.00
2018-06-20T01:29:15.212Z,0.00
2018-06-20T01:30:15.308Z,0.00
2018-06-20T01:31:15.347Z,0.00
2018-06-20T01:32:15.266Z,0.00
2018-06-20T01:33:15.289Z,0.00
2018-06-20T01:34:15.363Z,0.00
2018-06-20T01:35:15.330Z,0.00
2018-06-20T01:36:15.347Z,0.00
2018-06-20T01:37:15.378Z,0.00
2018-06-20T01:38:15.390Z,0.00
2018-06-20T01:39:15.401Z,0.00
2018-06-20T01:40:15.475Z,0.00
2018-06-20T01:41:15.444Z,0.00
2018-06-20T01:42:15.540Z,0.00
2018-06-20T01:43:15.487Z,0.00
2018-06-20T01:44:15.513Z,0.00
2018-06-20T01:45:15.527Z,0.00
2018-06-20T01:46:15.588Z,0.00
2018-06-20T01:47:15.555Z,0.00
2018-06-20T01:48:15.648Z,0.00
2018-06-20T01:49:15.646Z,0.00
2018-06-20T01:50:15.612Z,0.00
2018-06-20T01:51:15.638Z,0.00
2018-06-20T01:52:15.701Z,0.00
2018-06-20T01:53:15.680Z,0.00
2018-06-20T01:54:15.694Z,0.00
2018-06-20T01:55:15.709Z,0.00
2018-06-20T01:56:15.734Z,0.00
2018-06-20T01:57:15.752Z,0.00
2018-06-20T01:58:15.774Z,0.00
2018-06-20T01:59:15.788Z,0.00
2018-06-20T02:00:15.805Z,0.00
2018-06-20T02:01:15.889Z,0.00
2018-06-20T02:02:15.843Z,0.00
2018-06-20T02:03:15.870Z,0.00
2018-06-20T02:04:15.948Z,0.00
2018-06-20T02:05:15.903Z,0.00
2018-06-20T02:06:15.922Z,0.00
2018-06-20T02:07:15.946Z,0.00
2018-06-20T02:08:15.964Z,0.00
2018-06-20T02:09:15.984Z,0.00
2018-06-20T02:10:16.001Z,0.00
2018-06-20T02:11:16.016Z,0.00
2018-06-20T02:12:16.048Z,0.00
2018-06-20T02:13:16.056Z,0.00
2018-06-20T02:14:16.082Z,0.00
2018-06-20T02:15:16.099Z,0.00
2018-06-20T02:16:16.169Z,0.00
2018-06-20T02:17:16.153Z,0.00
2018-06-20T02:18:16.156Z,0.00
2018-06-20T02:19:16.174Z,0.00
2018-06-20T02:20:16.236Z,0.00
2018-06-20T02:21:16.208Z,0.00
2018-06-20T02:22:16.282Z,0.00
2018-06-20T02:23:16.245Z,0.00
2018-06-20T02:24:16.268Z,0.00
2018-06-20T02:25:16.289Z,0.00
2018-06-20T02:26:16.302Z,0.00
2018-06-20T02:27:16.324Z,0.00
2018-06-20T02:28:16.398Z,0.00
2018-06-20T02:29:16.360Z,0.00
2018-06-20T02:30:16.384Z,0.00
2018-06-20T02:31:16.399Z,0.00
2018-06-20T02:32:16.420Z,0.00
2018-06-20T02:33:16.439Z,0.00
2018-06-20T02:34:16.512Z,0.00
2018-06-20T02:35:16.480Z,0.00
2018-06-20T02:36:16.497Z,0.00
2018-06-20T02:37:16.513Z,0.00
2018-06-20T02:38:16.540Z,0.00
2018-06-20T02:39:16.623Z,0.00
2018-06-20T02:40:16.626Z,0.00
2018-06-20T02:41:16.596Z,0.00
2018-06-20T02:42:16.616Z,0.00
2018-06-20T02:43:16.634Z,0.00
2018-06-20T02:44:16.648Z,0.00
2018-06-20T02:45:16.717Z,0.00
2018-06-20T02:46:16.743Z,0.00
2018-06-20T02:47:16.728Z,0.00
2018-06-20T02:48:16.729Z,0.00
2018-06-20T02:49:16.747Z,0.00
2018-06-20T02:50:16.768Z,0.00
2018-06-20T02:51:16.791Z,0.00
2018-06-20T02:52:16.808Z,0.00
2018-06-20T02:53:16.827Z,0.00
2018-06-20T02:54:16.844Z,0.00
2018-06-20T02:55:16.869Z,0.00
2018-06-20T02:56:16.881Z,0.00
2018-06-20T02:57:16.934Z,0.00
2018-06-20T02:58:16.917Z,0.00
2018-06-20T02:59:16.937Z,0.00
2018-06-20T03:00:16.960Z,0.00
2018-06-20T03:01:16.976Z,0.00
2018-06-20T03:02:16.999Z,0.00
2018-06-20T03:03:17.020Z,0.00
2018-06-20T03:04:17.081Z,0.00
2018-06-20T03:05:17.063Z,0.00
2018-06-20T03:06:17.076Z,0.00
2018-06-20T03:07:17.095Z,0.00
2018-06-20T03:08:17.108Z,0.00
2018-06-20T03:09:17.135Z,0.00
2018-06-20T03:10:17.147Z,0.00
2018-06-20T03:11:17.171Z,0.00
2018-06-20T03:12:17.187Z,0.00
2018-06-20T03:13:17.205Z,0.00
2018-06-20T03:14:17.227Z,0.00
2018-06-20T03:15:17.251Z,0.00
2018-06-20T03:16:17.303Z,0.00
2018-06-20T03:17:17.278Z,0.00
2018-06-20T03:18:17.297Z,0.00
2018-06-20T03:19:17.325Z,0.00
2018-06-20T03:20:17.339Z,0.00
2018-06-20T03:21:17.363Z,0.00
2018-06-20T03:22:17.448Z,0.00
2018-06-20T03:23:17.394Z,0.00
2018-06-20T03:24:17.419Z,0.00
2018-06-20T03:25:17.439Z,0.00
2018-06-20T03:26:17.457Z,0.00
2018-06-20T03:27:17.541Z,0.00
2018-06-20T03:28:17.544Z,0.00
2018-06-20T03:29:17.510Z,0.00
2018-06-20T03:30:17.546Z,0.00
2018-06-20T03:31:17.547Z,0.00
2018-06-20T03:32:17.568Z,0.00
2018-06-20T03:33:17.584Z,0.00
2018-06-20T03:34:17.610Z,0.00
2018-06-20T03:35:17.625Z,0.00
2018-06-20T03:36:17.648Z,0.00
2018-06-20T03:37:17.659Z,0.00
2018-06-20T03:38:17.693Z,0.00
2018-06-20T03:39:17.702Z,0.00
2018-06-20T03:40:17.716Z,0.00
2018-06-20T03:41:17.807Z,0.00
2018-06-20T03:42:17.754Z,0.00
2018-06-20T03:43:17.784Z,0.00
2018-06-20T03:44:17.795Z,0.00
2018-06-20T03:45:17.819Z,0.00
2018-06-20T03:46:17.883Z,0.00
2018-06-20T03:47:17.908Z,0.00
2018-06-20T03:48:17.871Z,0.00
2018-06-20T03:49:17.891Z,0.00
2018-06-20T03:50:17.912Z,0.00
2018-06-20T03:51:17.929Z,0.00
2018-06-20T03:52:18.004Z,0.00
2018-06-20T03:53:18.058Z,0.00
2018-06-20T03:54:17.989Z,0.00
2018-06-20T03:55:18.007Z,0.00
2018-06-20T03:56:18.023Z,0.00
2018-06-20T03:57:18.040Z,0.00
2018-06-20T03:58:18.118Z,0.00
2018-06-20T03:59:18.106Z,0.00
2018-06-20T04:00:18.104Z,0.00
2018-06-20T04:01:18.116Z,0.00
2018-06-20T04:02:18.201Z,0.00
2018-06-20T04:03:18.160Z,0.00
2018-06-20T04:04:18.175Z,0.00
2018-06-20T04:05:18.197Z,0.00
2018-06-20T04:06:18.215Z,0.00
2018-06-20T04:07:18.238Z,0.00
2018-06-20T04:08:18.249Z,0.00
2018-06-20T04:09:18.273Z,0.00
2018-06-20T04:10:18.341Z,0.00
2018-06-20T04:11:18.311Z,0.00
2018-06-20T04:12:18.346Z,0.00
2018-06-20T04:13:18.350Z,0.00
2018-06-20T04:14:18.369Z,0.00
2018-06-20T04:15:18.394Z,0.00
2018-06-20T04:16:18.406Z,0.00
2018-06-20T04:17:18.423Z,0.00
2018-06-20T04:18:18.506Z,0.00
2018-06-20T04:19:18.462Z,0.00
2018-06-20T04:20:18.483Z,0.00
2018-06-20T04:21:18.508Z,0.00
2018-06-20T04:22:18.515Z,0.00
2018-06-20T04:23:18.534Z,0.00
2018-06-20T04:24:18.597Z,0.00
2018-06-20T04:25:18.668Z,0.00
2018-06-20T04:26:18.592Z,0.00
2018-06-20T04:27:18.614Z,0.00
2018-06-20T04:28:18.678Z,0.00
2018-06-20T04:29:18.647Z,0.00
2018-06-20T04:30:18.667Z,0.00
2018-06-20T04:31:18.690Z,0.00
2018-06-20T04:32:18.710Z,0.00
2018-06-20T04:33:18.724Z,0.00
2018-06-20T04:34:18.793Z,0.00
2018-06-20T04:35:18.764Z,0.00
2018-06-20T04:36:18.786Z,0.00
2018-06-20T04:37:18.802Z,0.00
2018-06-20T04:38:18.819Z,0.00
2018-06-20T04:39:18.839Z,0.00
2018-06-20T04:40:18.911Z,0.00
2018-06-20T04:41:18.872Z,0.00
2018-06-20T04:42:18.892Z,0.00
2018-06-20T04:43:18.910Z,0.00
2018-06-20T04:44:18.933Z,0.00
2018-06-20T04:45:18.949Z,0.00
2018-06-20T04:46:19.019Z,0.00
2018-06-20T04:47:18.988Z,0.00
2018-06-20T04:48:19.004Z,0.00
2018-06-20T04:49:19.024Z,0.00
2018-06-20T04:50:19.044Z,0.00
2018-06-20T04:51:19.061Z,0.00
2018-06-20T04:52:19.084Z,0.00
2018-06-20T04:53:19.097Z,0.00
2018-06-20T04:54:19.120Z,0.00
2018-06-20T04:55:19.184Z,0.00
2018-06-20T04:56:19.153Z,0.00
2018-06-20T04:57:19.176Z,0.00
2018-06-20T04:58:19.257Z,0.00
2018-06-20T04:59:19.209Z,0.00
2018-06-20T05:00:19.228Z,0.00
2018-06-20T05:01:19.322Z,0.00
2018-06-20T05:02:19.270Z,0.00
2018-06-20T05:03:19.291Z,0.00
2018-06-20T05:04:19.382Z,0.00
2018-06-20T05:05:19.321Z,0.00
2018-06-20T05:06:19.348Z,0.00
2018-06-20T05:07:19.449Z,0.00
2018-06-20T05:08:19.377Z,0.00
2018-06-20T05:09:19.408Z,0.00
2018-06-20T05:10:19.475Z,0.00
2018-06-20T05:11:19.438Z,0.00
2018-06-20T05:12:19.456Z,0.00
2018-06-20T05:13:19.530Z,0.00
2018-06-20T05:14:19.497Z,0.00
2018-06-20T05:15:19.512Z,5.63
2018-06-20T05:16:19.577Z,5.63
2018-06-20T05:17:19.546Z,5.63
2018-06-20T05:18:19.569Z,5.63
2018-06-20T05:19:19.674Z,5.63
2018-06-20T05:20:19.609Z,5.63
2018-06-20T05:21:19.620Z,5.63
2018-06-20T05:22:19.693Z,5.63
2018-06-20T05:23:19.664Z,5.63
2018-06-20T05:24:19.676Z,11.25
2018-06-20T05:25:19.737Z,11.25
2018-06-20T05:26:19.721Z,11.25
2018-06-20T05:27:19.736Z,11.25
2018-06-20T05:28:19.802Z,11.25
2018-06-20T05:29:19.773Z,11.25
2018-06-20T05:30:19.793Z,11.25
2018-06-20T05:31:19.889Z,16.88
2018-06-20T05:32:19.826Z,16.88
2018-06-20T05:33:19.852Z,16.88
2018-06-20T05:34:19.915Z,16.88
2018-06-20T05:35:19.883Z,16.88
2018-06-20T05:36:19.906Z,16.88
2018-06-20T05:37:19.923Z,16.88
2018-06-20T05:38:19.944Z,16.88
2018-06-20T05:39:19.968Z,22.50
2018-06-20T05:40:20.041Z,22.50
2018-06-20T05:41:19.998Z,22.50
2018-06-20T05:42:20.019Z,22.50
2018-06-20T05:43:20.038Z,22.50
2018-06-20T05:44:20.147Z,22.50
2018-06-20T05:45:20.078Z,28.13
2018-06-20T05:46:20.138Z,28.13
2018-06-20T05:47:20.119Z,28.13
2018-06-20T05:48:20.126Z,28.13
2018-06-20T05:49:20.144Z,28.13
2018-06-20T05:50:20.231Z,28.13
2018-06-20T05:51:20.186Z,33.75
2018-06-20T05:52:20.259Z,33.75
2018-06-20T05:53:20.227Z,33.75
2018-06-20T05:54:20.241Z,33.75
2018-06-20T05:55:20.257Z,33.75
2018-06-20T05:56:20.374Z,39.38
2018-06-20T05:57:20.299Z,39.38
2018-06-20T05:58:20.370Z,39.38
2018-06-20T05:59:20.333Z,39.38
2018-06-20T06:00:20.358Z,45.00
2018-06-20T06:01:20.377Z,45.00
2018-06-20T06:02:20.395Z,45.00
2018-06-20T06:03:20.413Z,50.63
2018-06-20T06:04:20.480Z,50.63
2018-06-20T06:05:20.449Z,50.63
2018-06-20T06:06:20.467Z,56.25
2018-06-20T06:07:20.487Z,56.25
2018-06-20T06:08:20.507Z,56.25
2018-06-20T06:09:20.597Z,61.88
2018-06-20T06:10:20.594Z,61.88
2018-06-20T06:11:20.559Z,67.50
2018-06-20T06:12:20.582Z,67.50
2018-06-20T06:13:20.599Z,67.50
2018-06-20T06:14:20.621Z,67.50
2018-06-20T06:15:20.714Z,73.13
2018-06-20T06:16:20.707Z,73.13
2018-06-20T06:17:20.681Z,73.13
2018-06-20T06:18:20.695Z,73.13
2018-06-20T06:19:20.713Z,78.75
2018-06-20T06:20:20.734Z,78.75
2018-06-20T06:21:20.771Z,73.13
2018-06-20T06:22:20.820Z,78.75
2018-06-20T06:23:20.861Z,78.75
2018-06-20T06:24:20.811Z,84.38
2018-06-20T06:25:20.826Z,84.38
2018-06-20T06:26:20.847Z,90.00
2018-06-20T06:27:20.873Z,90.00
2018-06-20T06:28:20.941Z,95.63
2018-06-20T06:29:20.902Z,101.25
2018-06-20T06:30:20.924Z,106.88
2018-06-20T06:31:20.949Z,112.50
2018-06-20T06:32:20.968Z,118.13
2018-06-20T06:33:20.997Z,129.38
2018-06-20T06:34:21.052Z,140.63
2018-06-20T06:35:21.025Z,151.88
2018-06-20T06:36:21.039Z,163.13
2018-06-20T06:37:21.064Z,163.13
2018-06-20T06:38:21.081Z,168.75
2018-06-20T06:39:21.103Z,180.00
2018-06-20T06:40:21.172Z,185.63
2018-06-20T06:41:21.133Z,185.63
2018-06-20T06:42:21.157Z,191.25
2018-06-20T06:43:21.178Z,196.88
2018-06-20T06:44:21.197Z,202.50
2018-06-20T06:45:21.213Z,208.13
2018-06-20T06:46:21.356Z,208.13
2018-06-20T06:47:21.258Z,213.75
2018-06-20T06:48:21.273Z,213.75
2018-06-20T06:49:21.300Z,219.38
2018-06-20T06:50:21.313Z,225.00
2018-06-20T06:51:21.330Z,230.63
2018-06-20T06:52:21.403Z,230.63
2018-06-20T06:53:21.374Z,230.63
2018-06-20T06:54:21.389Z,241.88
2018-06-20T06:55:21.410Z,236.25
2018-06-20T06:56:21.428Z,236.25
2018-06-20T06:57:21.452Z,241.88
2018-06-20T06:58:21.520Z,258.75
2018-06-20T06:59:21.492Z,258.75
2018-06-20T07:00:21.511Z,258.75
2018-06-20T07:01:21.530Z,258.75
2018-06-20T07:02:21.555Z,258.75
2018-06-20T07:03:21.573Z,258.75
2018-06-20T07:04:21.645Z,258.75
2018-06-20T07:05:21.615Z,270.00
2018-06-20T07:06:21.639Z,281.25
2018-06-20T07:07:21.649Z,286.88
2018-06-20T07:08:21.670Z,286.88
2018-06-20T07:09:21.740Z,292.50
2018-06-20T07:10:21.769Z,292.50
2018-06-20T07:11:21.766Z,298.13
2018-06-20T07:12:21.756Z,309.38
2018-06-20T07:13:21.772Z,309.38
2018-06-20T07:14:21.798Z,315.00
2018-06-20T07:15:21.821Z,315.00
2018-06-20T07:16:21.887Z,315.00
2018-06-20T07:17:21.863Z,320.63
2018-06-20T07:18:21.883Z,320.63
2018-06-20T07:19:21.898Z,320.63
2018-06-20T07:20:21.928Z,320.63
2018-06-20T07:21:21.944Z,309.38
2018-06-20T07:22:22.015Z,326.25
2018-06-20T07:23:21.982Z,337.50
2018-06-20T07:24:22.036Z,337.50
2018-06-20T07:25:22.025Z,337.50
2018-06-20T07:26:22.046Z,337.50
2018-06-20T07:27:22.074Z,348.75
2018-06-20T07:28:22.145Z,348.75
2018-06-20T07:29:22.161Z,343.13
2018-06-20T07:30:22.134Z,343.13
2018-06-20T07:31:22.155Z,354.38
2018-06-20T07:32:22.181Z,354.38
2018-06-20T07:33:22.209Z,354.38
2018-06-20T07:34:22.321Z,354.38
2018-06-20T07:35:22.285Z,360.00
2018-06-20T07:36:22.266Z,360.00
2018-06-20T07:37:22.283Z,354.38
2018-06-20T07:38:22.302Z,326.25
2018-06-20T07:39:22.327Z,365.63
2018-06-20T07:40:22.393Z,371.25
2018-06-20T07:41:22.406Z,365.63
2018-06-20T07:42:22.393Z,360.00
2018-06-20T07:43:22.409Z,360.00
2018-06-20T07:44:22.436Z,388.13
2018-06-20T07:45:22.452Z,388.13
2018-06-20T07:46:22.526Z,393.75
2018-06-20T07:47:22.501Z,393.75
2018-06-20T07:48:22.522Z,405.00
2018-06-20T07:49:22.545Z,393.75
2018-06-20T07:50:22.563Z,399.38
2018-06-20T07:51:22.585Z,405.00
2018-06-20T07:52:22.658Z,410.63
2018-06-20T07:53:22.636Z,410.63
2018-06-20T07:54:22.678Z,416.25
2018-06-20T07:55:22.837Z,421.88
2018-06-20T07:56:22.699Z,421.88
2018-06-20T07:57:22.724Z,421.88
2018-06-20T07:58:22.799Z,427.50
2018-06-20T07:59:22.772Z,427.50
2018-06-20T08:00:22.788Z,427.50
2018-06-20T08:01:22.813Z,438.75
2018-06-20T08:02:22.832Z,438.75
2018-06-20T08:03:22.906Z,450.00
2018-06-20T08:04:22.881Z,450.00
2018-06-20T08:05:22.900Z,455.63
2018-06-20T08:06:22.999Z,450.00
2018-06-20T08:07:22.948Z,455.63
2018-06-20T08:08:22.967Z,461.25
2018-06-20T08:09:23.049Z,461.25
2018-06-20T08:10:23.021Z,461.25
2018-06-20T08:11:23.043Z,472.50
2018-06-20T08:12:23.140Z,472.50
2018-06-20T08:13:23.084Z,472.50
2018-06-20T08:14:23.120Z,478.13
2018-06-20T08:15:23.202Z,478.13
2018-06-20T08:16:23.155Z,478.13
2018-06-20T08:17:23.179Z,478.13
2018-06-20T08:18:23.205Z,483.75
2018-06-20T08:19:23.279Z,483.75
2018-06-20T08:20:23.246Z,489.38
2018-06-20T08:21:23.324Z,489.38
2018-06-20T08:22:23.293Z,489.38
2018-06-20T08:23:23.319Z,495.00
2018-06-20T08:24:23.345Z,495.00
2018-06-20T08:25:23.420Z,495.00
2018-06-20T08:26:23.389Z,500.63
2018-06-20T08:27:23.460Z,500.63
2018-06-20T08:28:23.435Z,506.25
2018-06-20T08:29:23.459Z,506.25
2018-06-20T08:30:23.481Z,506.25
2018-06-20T08:31:23.576Z,506.25
2018-06-20T08:32:23.526Z,511.88
2018-06-20T08:33:23.601Z,511.88
2018-06-20T08:34:23.570Z,495.00
2018-06-20T08:35:23.600Z,517.50
2018-06-20T08:36:23.623Z,517.50
2018-06-20T08:37:23.642Z,517.50
2018-06-20T08:38:23.668Z,523.13
2018-06-20T08:39:23.736Z,523.13
2018-06-20T08:40:23.706Z,528.75
2018-06-20T08:41:23.734Z,528.75
2018-06-20T08:42:23.767Z,534.38
2018-06-20T08:43:23.786Z,534.38
2018-06-20T08:44:23.804Z,534.38
2018-06-20T08:45:23.882Z,534.38
2018-06-20T08:46:23.856Z,540.00
2018-06-20T08:47:23.881Z,540.00
2018-06-20T08:48:23.895Z,540.00
2018-06-20T08:49:23.924Z,551.25
2018-06-20T08:50:24.041Z,551.25
2018-06-20T08:51:24.049Z,551.25
2018-06-20T08:52:23.995Z,562.50
2018-06-20T08:53:24.019Z,556.88
2018-06-20T08:54:24.041Z,562.50
2018-06-20T08:55:24.061Z,562.50
2018-06-20T08:56:24.092Z,562.50
2018-06-20T08:57:24.112Z,562.50
2018-06-20T08:58:24.137Z,562.50
2018-06-20T08:59:24.162Z,568.13
2018-06-20T09:00:24.181Z,568.13
2018-06-20T09:01:24.213Z,573.75
2018-06-20T09:02:24.231Z,573.75
2018-06-20T09:03:24.256Z,579.38
2018-06-20T09:04:24.286Z,579.38
2018-06-20T09:05:24.301Z,568.13
2018-06-20T09:06:24.334Z,579.38
2018-06-20T09:07:24.353Z,573.75
2018-06-20T09:08:24.373Z,585.00
2018-06-20T09:09:24.447Z,585.00
2018-06-20T09:10:24.421Z,585.00
2018-06-20T09:11:24.450Z,585.00
2018-06-20T09:12:24.468Z,596.25
2018-06-20T09:13:24.497Z,596.25
2018-06-20T09:14:24.545Z,601.88
2018-06-20T09:15:24.549Z,601.88
2018-06-20T09:16:24.573Z,607.50
2018-06-20T09:17:24.594Z,613.13
2018-06-20T09:18:24.637Z,596.25
2018-06-20T09:19:24.637Z,573.75
2018-06-20T09:20:24.715Z,607.50
2018-06-20T09:21:24.806Z,601.88
2018-06-20T09:22:24.717Z,618.75
2018-06-20T09:23:24.738Z,630.00
2018-06-20T09:24:24.762Z,613.13
2018-06-20T09:25:24.787Z,624.38
2018-06-20T09:26:24.861Z,630.00
2018-06-20T09:27:24.928Z,630.00
2018-06-20T09:28:24.865Z,635.63
2018-06-20T09:29:24.886Z,630.00
2018-06-20T09:30:24.915Z,635.63
2018-06-20T09:31:24.937Z,635.63
2018-06-20T09:32:24.965Z,635.63
2018-06-20T09:33:25.029Z,630.00
2018-06-20T09:34:25.015Z,630.00
2018-06-20T09:35:25.038Z,630.00
2018-06-20T09:36:25.103Z,630.00
2018-06-20T09:37:25.088Z,624.38
2018-06-20T09:38:25.110Z,630.00
2018-06-20T09:39:25.196Z,630.00
2018-06-20T09:40:25.159Z,635.63
2018-06-20T09:41:25.183Z,630.00
2018-06-20T09:42:25.214Z,635.63
2018-06-20T09:43:25.239Z,624.38
2018-06-20T09:44:25.259Z,635.63
2018-06-20T09:45:25.289Z,630.00
2018-06-20T09:46:25.312Z,635.63
2018-06-20T09:47:25.339Z,624.38
2018-06-20T09:48:25.370Z,635.63
2018-06-20T09:49:25.384Z,641.25
2018-06-20T09:50:25.417Z,641.25
2018-06-20T09:51:25.492Z,635.63
2018-06-20T09:52:25.464Z,641.25
2018-06-20T09:53:25.493Z,641.25
2018-06-20T09:54:25.512Z,646.88
2018-06-20T09:55:25.543Z,646.88
2018-06-20T09:56:25.569Z,646.88
2018-06-20T09:57:25.644Z,646.88
2018-06-20T09:58:25.660Z,646.88
2018-06-20T09:59:25.641Z,646.88
2018-06-20T10:00:25.672Z,652.50
2018-06-20T10:01:25.737Z,652.50
2018-06-20T10:02:25.725Z,658.13
2018-06-20T10:03:25.750Z,658.13
2018-06-20T10:04:25.850Z,658.13
2018-06-20T10:05:25.803Z,658.13
2018-06-20T10:06:25.831Z,658.13
2018-06-20T10:07:25.859Z,663.75
2018-06-20T10:08:25.873Z,669.38
2018-06-20T10:09:25.898Z,646.88
2018-06-20T10:10:26.005Z,669.38
2018-06-20T10:11:25.958Z,663.75
2018-06-20T10:12:25.977Z,663.75
2018-06-20T10:13:26.011Z,663.75
2018-06-20T10:14:26.083Z,669.38
2018-06-20T10:15:26.059Z,669.38
2018-06-20T10:16:26.095Z,669.38
2018-06-20T10:17:26.107Z,675.00
2018-06-20T10:18:26.138Z,675.00
2018-06-20T10:19:26.165Z,675.00
2018-06-20T10:20:26.223Z,675.00
2018-06-20T10:21:26.250Z,675.00
2018-06-20T10:22:26.279Z,675.00
2018-06-20T10:23:26.264Z,680.63
2018-06-20T10:24:26.290Z,680.63
2018-06-20T10:25:26.327Z,680.63
2018-06-20T10:26:26.557Z,680.63
2018-06-20T10:27:26.374Z,680.63
2018-06-20T10:28:26.513Z,686.25
2018-06-20T10:29:26.419Z,686.25
2018-06-20T10:30:26.449Z,624.38
2018-06-20T10:31:26.479Z,675.00
2018-06-20T10:32:26.501Z,669.38
2018-06-20T10:33:26.530Z,675.00
2018-06-20T10:34:26.606Z,675.00
2018-06-20T10:35:26.584Z,675.00
2018-06-20T10:36:26.607Z,675.00
2018-06-20T10:37:26.637Z,675.00
2018-06-20T10:38:26.709Z,680.63
2018-06-20T10:39:26.687Z,686.25
2018-06-20T10:40:26.735Z,680.63
2018-06-20T10:41:26.739Z,680.63
2018-06-20T10:42:26.764Z,680.63
2018-06-20T10:43:26.788Z,686.25
2018-06-20T10:44:26.810Z,686.25
2018-06-20T10:45:26.837Z,686.25
2018-06-20T10:46:26.895Z,686.25
2018-06-20T10:47:26.892Z,686.25
2018-06-20T10:48:26.916Z,686.25
2018-06-20T10:49:27.029Z,630.00
2018-06-20T10:50:26.969Z,686.25
2018-06-20T10:51:26.999Z,691.88
2018-06-20T10:52:27.031Z,697.50
2018-06-20T10:53:27.052Z,691.88
2018-06-20T10:54:27.147Z,691.88
2018-06-20T10:55:27.101Z,691.88
2018-06-20T10:56:27.123Z,686.25
2018-06-20T10:57:27.148Z,691.88
2018-06-20T10:58:27.171Z,691.88
2018-06-20T10:59:27.199Z,697.50
2018-06-20T11:00:27.223Z,703.13
2018-06-20T11:01:27.249Z,703.13
2018-06-20T11:02:27.273Z,703.13
2018-06-20T11:03:27.299Z,703.13
2018-06-20T11:04:27.421Z,708.75
2018-06-20T11:05:27.352Z,703.13
2018-06-20T11:06:27.431Z,708.75
2018-06-20T11:07:27.399Z,708.75
2018-06-20T11:08:27.426Z,714.38
2018-06-20T11:09:27.455Z,697.50
2018-06-20T11:10:27.491Z,703.13
2018-06-20T11:11:27.504Z,691.88
2018-06-20T11:12:27.583Z,641.25
2018-06-20T11:13:27.557Z,635.63
2018-06-20T11:14:27.590Z,624.38
2018-06-20T11:15:27.757Z,675.00
2018-06-20T11:16:27.696Z,669.38
2018-06-20T11:17:27.664Z,708.75
2018-06-20T11:18:27.689Z,703.13
2018-06-20T11:19:27.712Z,714.38
2018-06-20T11:20:27.741Z,708.75
2018-06-20T11:21:27.760Z,686.25
2018-06-20T11:22:27.788Z,669.38
2018-06-20T11:23:27.817Z,675.00
2018-06-20T11:24:27.896Z,714.38
2018-06-20T11:25:27.868Z,708.75
2018-06-20T11:26:27.960Z,663.75
2018-06-20T11:27:27.919Z,680.63
2018-06-20T11:28:27.948Z,725.63
2018-06-20T11:29:27.969Z,720.00
2018-06-20T11:30:27.994Z,720.00
2018-06-20T11:31:28.022Z,714.38
2018-06-20T11:32:28.049Z,714.38
2018-06-20T11:33:28.071Z,708.75
2018-06-20T11:34:28.102Z,714.38
2018-06-20T11:35:28.132Z,697.50
2018-06-20T11:36:28.204Z,725.63
2018-06-20T11:37:28.183Z,725.63
2018-06-20T11:38:28.201Z,725.63
2018-06-20T11:39:28.258Z,725.63
2018-06-20T11:40:28.255Z,731.25
2018-06-20T11:41:28.281Z,725.63
2018-06-20T11:42:28.358Z,731.25
2018-06-20T11:43:28.331Z,714.38
2018-06-20T11:44:28.355Z,714.38
2018-06-20T11:45:28.385Z,714.38
2018-06-20T11:46:28.404Z,736.88
2018-06-20T11:47:28.516Z,731.25
2018-06-20T11:48:28.509Z,725.63
2018-06-20T11:49:28.488Z,720.00
2018-06-20T11:50:28.514Z,714.38
2018-06-20T11:51:28.540Z,725.63
2018-06-20T11:52:28.559Z,731.25
2018-06-20T11:53:28.647Z,725.63
2018-06-20T11:54:28.612Z,708.75
2018-06-20T11:55:28.636Z,736.88
2018-06-20T11:56:28.661Z,742.50
2018-06-20T11:57:28.688Z,736.88
2018-06-20T11:58:28.715Z,742.50
2018-06-20T11:59:28.737Z,748.13
2018-06-20T12:00:28.813Z,759.38
2018-06-20T12:01:28.787Z,765.00
2018-06-20T12:02:28.815Z,759.38
2018-06-20T12:03:28.844Z,770.63
2018-06-20T12:04:28.867Z,770.63
2018-06-20T12:05:28.893Z,770.63
2018-06-20T12:06:28.977Z,770.63
2018-06-20T12:07:28.946Z,770.63
2018-06-20T12:08:29.006Z,776.25
2018-06-20T12:09:29.001Z,776.25
2018-06-20T12:10:29.027Z,781.88
2018-06-20T12:11:29.051Z,765.00
2018-06-20T12:12:29.075Z,663.75
2018-06-20T12:13:29.114Z,590.63
2018-06-20T12:14:29.134Z,444.38
2018-06-20T12:15:29.160Z,405.00
2018-06-20T12:16:29.212Z,371.25
2018-06-20T12:17:29.209Z,337.50
2018-06-20T12:18:29.305Z,405.00
2018-06-20T12:19:29.267Z,450.00
2018-06-20T12:20:29.295Z,461.25
2018-06-20T12:21:29.329Z,489.38
2018-06-20T12:22:29.349Z,500.63
2018-06-20T12:23:29.369Z,495.00
2018-06-20T12:24:29.396Z,607.50
2018-06-20T12:25:29.426Z,601.88
2018-06-20T12:26:29.447Z,568.13
2018-06-20T12:27:29.468Z,500.63
2018-06-20T12:28:29.499Z,450.00
2018-06-20T12:29:29.519Z,438.75
2018-06-20T12:30:29.599Z,455.63
2018-06-20T12:31:29.569Z,478.13
2018-06-20T12:32:29.600Z,500.63
2018-06-20T12:33:29.671Z,573.75
2018-06-20T12:34:29.653Z,624.38
2018-06-20T12:35:29.673Z,658.13
2018-06-20T12:36:29.783Z,618.75
2018-06-20T12:37:29.723Z,568.13
2018-06-20T12:38:29.757Z,585.00
2018-06-20T12:39:29.847Z,618.75
2018-06-20T12:40:29.801Z,607.50
2018-06-20T12:41:30.030Z,573.75
2018-06-20T12:42:29.926Z,517.50
2018-06-20T12:43:29.875Z,478.13
2018-06-20T12:44:29.900Z,495.00
2018-06-20T12:45:29.946Z,523.13
2018-06-20T12:46:29.953Z,545.63
2018-06-20T12:47:29.979Z,562.50
2018-06-20T12:48:30.008Z,568.13
2018-06-20T12:49:30.025Z,568.13
2018-06-20T12:50:30.058Z,562.50